createdAt,value
2023-01-25T00:00:04.219Z,100558.19
2023-01-25T00:02:10.473Z,100551.78
2023-01-25T00:04:15.749Z,100555.78
2023-01-25T00:06:21.374Z,100556.97
2023-01-25T00:08:28.944Z,100542.00
2023-01-25T00:10:33.960Z,100543.03
2023-01-25T00:12:39.085Z,100541.88
2023-01-25T00:14:44.101Z,100533.53
2023-01-25T00:16:49.791Z,100538.84
2023-01-25T00:18:55.176Z,100536.78
2023-01-25T00:21:01.212Z,100537.38
2023-01-25T00:23:06.214Z,100535.63
2023-01-25T00:25:15.344Z,100535.69
2023-01-25T00:27:20.345Z,100535.75
2023-01-25T00:29:25.797Z,100536.00
2023-01-25T00:31:44.868Z,100538.38
2023-01-25T00:33:58.716Z,100536.53
2023-01-25T00:36:04.506Z,100537.16
2023-01-25T00:38:27.639Z,100532.91
2023-01-25T00:40:35.203Z,100533.16
2023-01-25T00:42:40.151Z,100534.13
2023-01-25T00:44:45.513Z,100525.91
2023-01-25T00:46:51.402Z,100528.91
2023-01-25T00:48:57.761Z,100516.81
2023-01-25T00:51:04.225Z,100531.56
2023-01-25T00:53:09.236Z,100531.34
2023-01-25T00:55:14.381Z,100526.59
2023-01-25T00:57:22.296Z,100525.91
2023-01-25T00:59:28.234Z,100526.59
2023-01-25T01:01:33.330Z,100526.50
2023-01-25T01:03:38.909Z,100527.94
2023-01-25T01:05:45.129Z,100538.59
2023-01-25T01:07:52.663Z,100518.97
2023-01-25T01:09:58.125Z,100531.84
2023-01-25T01:12:03.562Z,100527.69
2023-01-25T01:14:12.388Z,100534.31
2023-01-25T01:16:17.463Z,100530.81
2023-01-25T01:18:22.449Z,100530.97
2023-01-25T01:20:28.063Z,100531.75
2023-01-25T01:22:33.132Z,100528.53
2023-01-25T01:24:38.022Z,100526.00
2023-01-25T01:26:43.075Z,100521.06
2023-01-25T01:28:49.295Z,100532.63
2023-01-25T01:30:56.992Z,100521.16
2023-01-25T01:33:02.497Z,100524.31
2023-01-25T01:35:09.832Z,100529.28
2023-01-25T01:37:15.490Z,100526.72
2023-01-25T01:39:21.052Z,100523.34
2023-01-25T01:41:26.081Z,100527.69
2023-01-25T01:43:31.527Z,100522.31
2023-01-25T01:45:57.464Z,100522.94
2023-01-25T01:48:14.718Z,100525.19
2023-01-25T01:50:26.316Z,100526.00
2023-01-25T01:52:36.191Z,100525.09
2023-01-25T01:54:45.566Z,100517.66
2023-01-25T01:56:58.214Z,100517.16
2023-01-25T01:59:03.891Z,100519.69
2023-01-25T02:01:12.318Z,100519.16
2023-01-25T02:03:17.776Z,100520.00
2023-01-25T02:05:28.984Z,100515.94
2023-01-25T02:07:37.133Z,100517.28
2023-01-25T02:09:43.409Z,100515.34
2023-01-25T02:11:49.796Z,100514.34
2023-01-25T02:13:56.621Z,100513.75
2023-01-25T02:16:02.067Z,100517.16
2023-01-25T02:18:10.963Z,100508.81
2023-01-25T02:20:27.830Z,100505.66
2023-01-25T02:22:42.928Z,100504.88
2023-01-25T02:25:18.723Z,100516.44
2023-01-25T02:27:26.370Z,100508.91
2023-01-25T02:29:33.387Z,100510.88
2023-01-25T02:31:38.473Z,100510.94
2023-01-25T02:33:43.397Z,100514.28
2023-01-25T02:35:53.967Z,100515.84
2023-01-25T02:37:59.167Z,100515.00
2023-01-25T02:40:05.787Z,100506.78
2023-01-25T02:42:11.128Z,100514.91
2023-01-25T02:44:26.508Z,100513.28
2023-01-25T02:46:36.042Z,100508.16
2023-01-25T02:48:41.258Z,100512.25
2023-01-25T02:50:46.180Z,100497.56
2023-01-25T02:52:51.040Z,100503.25
2023-01-25T02:54:56.256Z,100499.00
2023-01-25T02:57:01.597Z,100492.38
2023-01-25T02:59:14.615Z,100495.09
2023-01-25T03:01:26.837Z,100489.34
2023-01-25T03:03:32.186Z,100481.84
2023-01-25T03:05:37.205Z,100482.69
2023-01-25T03:07:42.191Z,100484.13
2023-01-25T03:09:47.552Z,100485.84
2023-01-25T03:11:52.477Z,100484.03
2023-01-25T03:13:59.693Z,100475.81
2023-01-25T03:16:08.222Z,100478.03
2023-01-25T03:18:15.876Z,100472.31
2023-01-25T03:20:21.990Z,100468.91
2023-01-25T03:22:26.907Z,100465.53
2023-01-25T03:24:32.184Z,100462.13
2023-01-25T03:26:57.955Z,100455.47
2023-01-25T03:29:10.566Z,100453.91
2023-01-25T03:31:20.227Z,100449.09
2023-01-25T03:33:28.913Z,100444.00
2023-01-25T03:35:33.933Z,100448.72
2023-01-25T03:37:39.130Z,100442.88
2023-01-25T03:39:44.836Z,100440.03
2023-01-25T03:41:50.043Z,100443.28
2023-01-25T03:43:55.295Z,100441.16
2023-01-25T03:46:04.258Z,100442.06
2023-01-25T03:48:11.349Z,100438.81
2023-01-25T03:50:19.675Z,100433.84
2023-01-25T03:52:26.897Z,100439.78
2023-01-25T03:54:32.160Z,100440.63
2023-01-25T03:56:38.749Z,100434.00
2023-01-25T03:58:56.135Z,100430.59
2023-01-25T04:01:03.919Z,100433.72
2023-01-25T04:03:09.249Z,100432.03
2023-01-25T04:05:14.238Z,100430.47
2023-01-25T04:07:22.393Z,100428.66
2023-01-25T04:09:27.532Z,100434.50
2023-01-25T04:11:35.371Z,100436.09
2023-01-25T04:13:42.063Z,100438.44
2023-01-25T04:15:49.785Z,100431.25
2023-01-25T04:18:09.512Z,100424.09
2023-01-25T04:20:15.863Z,100424.19
2023-01-25T04:22:24.675Z,100428.03
2023-01-25T04:24:32.258Z,100422.00
2023-01-25T04:26:37.774Z,100423.56
2023-01-25T04:28:43.877Z,100412.63
2023-01-25T04:30:49.770Z,100413.53
2023-01-25T04:32:55.877Z,100410.03
2023-01-25T04:35:05.209Z,100400.13
2023-01-25T04:37:10.211Z,100404.97
2023-01-25T04:39:27.544Z,100398.81
2023-01-25T04:41:32.844Z,100395.53
2023-01-25T04:43:37.950Z,100391.66
2023-01-25T04:45:47.317Z,100392.59
2023-01-25T04:48:04.175Z,100386.81
2023-01-25T04:50:10.475Z,100388.41
2023-01-25T04:52:16.453Z,100387.50
2023-01-25T04:54:21.336Z,100390.03
2023-01-25T04:56:29.102Z,100383.47
2023-01-25T04:58:36.761Z,100378.63
2023-01-25T05:00:42.023Z,100379.22
2023-01-25T05:02:49.392Z,100382.50
2023-01-25T05:04:54.486Z,100383.31
2023-01-25T05:07:00.228Z,100378.25
2023-01-25T05:09:06.016Z,100378.31
2023-01-25T05:11:13.248Z,100376.69
2023-01-25T05:13:30.940Z,100371.59
2023-01-25T05:15:46.414Z,100381.50
2023-01-25T05:17:51.623Z,100378.13
2023-01-25T05:19:56.562Z,100378.13
2023-01-25T05:22:00.137Z,100376.44
2023-01-25T05:24:16.642Z,100374.84
2023-01-25T05:26:34.351Z,100370.63
2023-01-25T05:28:41.937Z,100369.53
2023-01-25T05:31:12.693Z,100378.00
2023-01-25T05:33:17.919Z,100379.69
2023-01-25T05:35:23.185Z,100379.44
2023-01-25T05:37:32.185Z,100376.31
2023-01-25T05:39:43.997Z,100376.91
2023-01-25T05:41:49.032Z,100376.06
2023-01-25T05:43:56.529Z,100384.94
2023-01-25T05:46:02.677Z,100381.13
2023-01-25T05:48:09.365Z,100382.84
2023-01-25T05:50:14.675Z,100383.75
2023-01-25T05:52:41.560Z,100381.13
2023-01-25T05:54:46.634Z,100385.97
2023-01-25T05:56:53.526Z,100382.44
2023-01-25T05:59:03.462Z,100379.31
2023-01-25T06:01:10.794Z,100380.09
2023-01-25T06:03:26.418Z,100381.13
2023-01-25T06:05:31.780Z,100378.53
2023-01-25T06:07:38.251Z,100387.53
2023-01-25T06:09:43.163Z,100388.97
2023-01-25T06:11:48.445Z,100377.38
2023-01-25T06:13:53.939Z,100372.28
2023-01-25T06:16:02.048Z,100379.19
2023-01-25T06:18:18.872Z,100375.53
2023-01-25T06:20:37.675Z,100370.59
2023-01-25T06:22:45.494Z,100373.81
2023-01-25T06:24:50.865Z,100365.53
2023-01-25T06:26:55.902Z,100367.81
2023-01-25T06:29:00.999Z,100366.03
2023-01-25T06:31:14.810Z,100375.69
2023-01-25T06:33:20.931Z,100370.22
2023-01-25T06:35:28.886Z,100383.34
2023-01-25T06:37:33.784Z,100379.72
2023-01-25T06:39:38.650Z,100382.75
2023-01-25T06:41:43.536Z,100376.47
2023-01-25T06:43:48.623Z,100384.03
2023-01-25T06:45:53.486Z,100388.78
2023-01-25T06:48:01.288Z,100381.53
2023-01-25T06:50:06.840Z,100375.03
2023-01-25T06:52:11.718Z,100373.22
2023-01-25T06:54:16.737Z,100375.81
2023-01-25T06:56:24.934Z,100375.03
2023-01-25T06:58:31.064Z,100382.34
2023-01-25T07:00:35.961Z,100382.47
2023-01-25T07:02:41.340Z,100379.16
2023-01-25T07:04:48.827Z,100388.06
2023-01-25T07:06:53.738Z,100382.19
2023-01-25T07:08:58.895Z,100376.59
2023-01-25T07:11:09.492Z,100373.22
2023-01-25T07:13:14.727Z,100371.41
2023-01-25T07:15:19.958Z,100371.53
2023-01-25T07:17:25.060Z,100370.94
2023-01-25T07:19:30.032Z,100364.41
2023-01-25T07:21:38.076Z,100369.25
2023-01-25T07:23:43.122Z,100367.63
2023-01-25T07:25:49.068Z,100373.34
2023-01-25T07:27:53.974Z,100368.28
2023-01-25T07:29:59.216Z,100366.19
2023-01-25T07:32:04.119Z,100361.22
2023-01-25T07:34:11.630Z,100361.91
2023-01-25T07:36:16.541Z,100364.56
2023-01-25T07:38:24.424Z,100356.28
2023-01-25T07:40:29.800Z,100355.38
2023-01-25T07:42:35.091Z,100348.97
2023-01-25T07:44:51.197Z,100349.22
2023-01-25T07:46:56.777Z,100352.16
2023-01-25T07:49:02.561Z,100350.72
2023-01-25T07:51:22.887Z,100346.34
2023-01-25T07:53:30.802Z,100347.72
2023-01-25T07:55:35.930Z,100346.66
2023-01-25T07:57:40.972Z,100351.06
2023-01-25T07:59:45.943Z,100346.22
2023-01-25T08:01:50.800Z,100345.22
2023-01-25T08:03:57.660Z,100352.50
2023-01-25T08:06:05.336Z,100349.22
2023-01-25T08:08:10.426Z,100353.22
2023-01-25T08:10:18.631Z,100349.34
2023-01-25T08:12:23.591Z,100351.91
2023-01-25T08:14:29.348Z,100356.00
2023-01-25T08:16:35.733Z,100356.28
2023-01-25T08:18:41.103Z,100358.88
2023-01-25T08:20:46.024Z,100356.00
2023-01-25T08:22:51.197Z,100353.59
2023-01-25T08:24:57.023Z,100350.56
2023-01-25T08:27:04.488Z,100360.69
2023-01-25T08:29:10.072Z,100351.13
2023-01-25T08:31:18.666Z,100348.69
2023-01-25T08:33:23.599Z,100344.78
2023-01-25T08:35:29.382Z,100344.53
2023-01-25T08:37:34.298Z,100342.25
2023-01-25T08:39:39.191Z,100340.66
2023-01-25T08:41:45.620Z,100344.06
2023-01-25T08:43:56.298Z,100339.81
2023-01-25T08:46:02.611Z,100338.25
2023-01-25T08:48:08.320Z,100340.06
2023-01-25T08:50:15.050Z,100339.19
2023-01-25T08:52:21.860Z,100332.38
2023-01-25T08:54:28.406Z,100331.75
2023-01-25T08:56:33.289Z,100330.25
2023-01-25T08:58:41.782Z,100333.50
2023-01-25T09:00:49.648Z,100334.44
2023-01-25T09:02:54.764Z,100331.63
2023-01-25T09:04:59.599Z,100330.25
2023-01-25T09:07:04.453Z,100330.16
2023-01-25T09:09:10.651Z,100321.97
2023-01-25T09:11:19.174Z,100332.13
2023-01-25T09:13:24.108Z,100325.81
2023-01-25T09:15:29.632Z,100329.09
2023-01-25T09:17:39.032Z,100322.56
2023-01-25T09:19:44.366Z,100325.72
2023-01-25T09:21:49.263Z,100325.09
2023-01-25T09:24:11.474Z,100315.19
2023-01-25T09:26:16.483Z,100323.16
2023-01-25T09:28:21.332Z,100318.09
2023-01-25T09:30:37.269Z,100324.84
2023-01-25T09:33:00.585Z,100313.25
2023-01-25T09:35:06.286Z,100320.25
2023-01-25T09:37:11.513Z,100326.66
2023-01-25T09:39:16.539Z,100320.38
2023-01-25T09:41:42.758Z,100316.03
2023-01-25T09:44:15.441Z,100316.41
2023-01-25T09:46:29.222Z,100314.00
2023-01-25T09:48:46.628Z,100304.16
2023-01-25T09:51:17.692Z,100303.50
2023-01-25T09:53:36.276Z,100309.75
2023-01-25T09:55:42.678Z,100297.91
2023-01-25T09:57:51.001Z,100296.16
2023-01-25T10:00:01.063Z,100295.03
2023-01-25T10:02:19.996Z,100278.94
2023-01-25T10:04:31.537Z,100292.00
2023-01-25T10:06:55.163Z,100291.69
2023-01-25T10:09:16.105Z,100291.25
2023-01-25T10:11:27.095Z,100286.91
2023-01-25T10:13:32.706Z,100288.59
2023-01-25T10:15:43.546Z,100289.78
2023-01-25T10:17:51.525Z,100292.34
2023-01-25T10:20:18.297Z,100286.91
2023-01-25T10:22:28.871Z,100283.41
2023-01-25T10:24:53.598Z,100287.25
2023-01-25T10:27:04.647Z,100280.38
2023-01-25T10:29:20.445Z,100276.66
2023-01-25T10:31:35.847Z,100277.38
2023-01-25T10:33:46.373Z,100264.94
2023-01-25T10:35:53.849Z,100265.19
2023-01-25T10:38:05.755Z,100266.97
2023-01-25T10:40:22.713Z,100256.94
2023-01-25T10:42:32.456Z,100250.19
2023-01-25T10:44:39.038Z,100243.44
2023-01-25T10:46:48.611Z,100251.88
2023-01-25T10:48:53.781Z,100234.09
2023-01-25T10:51:01.698Z,100227.69
2023-01-25T10:53:07.126Z,100230.66
2023-01-25T10:55:20.310Z,100228.91
2023-01-25T10:57:25.874Z,100222.28
2023-01-25T10:59:32.086Z,100220.75
2023-01-25T11:01:39.398Z,100225.13
2023-01-25T11:03:46.807Z,100227.88
2023-01-25T11:06:00.483Z,100220.56
2023-01-25T11:08:27.174Z,100215.59
2023-01-25T11:10:35.042Z,100208.94
2023-01-25T11:12:39.961Z,100209.75
2023-01-25T11:14:45.377Z,100211.91
2023-01-25T11:16:51.197Z,100205.34
2023-01-25T11:18:58.849Z,100206.19
2023-01-25T11:21:19.373Z,100192.28
2023-01-25T11:23:27.856Z,100189.34
2023-01-25T11:25:36.430Z,100179.31
2023-01-25T11:27:41.283Z,100186.47
2023-01-25T11:29:47.171Z,100177.22
2023-01-25T11:31:54.915Z,100185.53
2023-01-25T11:34:00.266Z,100176.78
2023-01-25T11:36:25.235Z,100178.38
2023-01-25T11:38:30.862Z,100175.84
2023-01-25T11:40:43.884Z,100170.13
2023-01-25T11:43:05.645Z,100165.69
2023-01-25T11:45:51.472Z,100151.91
2023-01-25T11:48:19.406Z,100154.31
2023-01-25T11:50:33.894Z,100144.81
2023-01-25T11:53:03.289Z,100136.59
2023-01-25T11:55:27.622Z,100130.13
2023-01-25T11:58:03.903Z,100129.19
2023-01-25T12:00:38.611Z,100130.34
2023-01-25T12:03:31.797Z,100122.22
2023-01-25T12:05:54.954Z,100126.09
2023-01-25T12:08:22.931Z,100114.66
2023-01-25T12:10:42.112Z,100112.66
2023-01-25T12:12:56.942Z,100108.84
2023-01-25T12:15:24.253Z,100104.66
2023-01-25T12:17:48.017Z,100095.69
2023-01-25T12:20:16.733Z,100087.78
2023-01-25T12:22:41.233Z,100091.13
2023-01-25T12:25:01.272Z,100073.13
2023-01-25T12:27:19.197Z,100082.50
2023-01-25T12:29:32.869Z,100073.09
2023-01-25T12:31:48.617Z,100070.84
2023-01-25T12:34:03.198Z,100061.69
2023-01-25T12:36:16.335Z,100063.69
2023-01-25T12:38:29.997Z,100053.28
2023-01-25T12:40:51.657Z,100050.84
2023-01-25T12:43:02.715Z,100047.66
2023-01-25T12:45:16.958Z,100047.38
2023-01-25T12:47:27.797Z,100040.31
2023-01-25T12:49:39.189Z,100032.41
2023-01-25T12:51:46.707Z,100033.97
2023-01-25T12:53:52.335Z,100028.31
2023-01-25T12:56:02.323Z,100024.75
2023-01-25T12:58:23.827Z,100024.13
2023-01-25T13:00:46.149Z,100016.78
2023-01-25T13:03:15.085Z,100017.00
2023-01-25T13:05:33.873Z,100016.28
2023-01-25T13:07:46.418Z,100007.16
2023-01-25T13:10:05.080Z,100002.13
2023-01-25T13:12:15.603Z,100005.66
2023-01-25T13:14:32.402Z,99988.41
2023-01-25T13:16:44.227Z,99981.19
2023-01-25T13:18:49.837Z,99977.53
2023-01-25T13:20:56.807Z,99971.25
2023-01-25T13:23:02.817Z,99966.69
2023-01-25T13:25:22.959Z,99964.91
2023-01-25T13:27:34.737Z,99954.19
2023-01-25T13:29:49.386Z,99956.41
2023-01-25T13:31:57.851Z,99951.28
2023-01-25T13:34:03.605Z,99949.09
2023-01-25T13:36:41.527Z,99935.16
2023-01-25T13:38:46.553Z,99945.91
2023-01-25T13:41:10.767Z,99943.56
2023-01-25T13:43:24.921Z,99929.28
2023-01-25T13:45:31.099Z,99926.78
2023-01-25T13:47:39.934Z,99925.81
2023-01-25T13:49:49.905Z,99926.72
2023-01-25T13:51:54.810Z,99921.13
2023-01-25T13:54:01.739Z,99914.59
2023-01-25T13:56:06.860Z,99916.38
2023-01-25T13:58:14.053Z,99907.16
2023-01-25T14:00:24.023Z,99903.75
2023-01-25T14:02:30.262Z,99903.06
2023-01-25T14:04:35.217Z,99896.25
2023-01-25T14:06:42.719Z,99900.94
2023-01-25T14:08:49.711Z,99901.03
2023-01-25T14:10:55.801Z,99901.03
2023-01-25T14:13:03.520Z,99891.13
2023-01-25T14:15:26.342Z,99884.38
2023-01-25T14:17:31.332Z,99886.22
2023-01-25T14:19:41.431Z,99878.88
2023-01-25T14:21:46.243Z,99883.16
2023-01-25T14:23:52.330Z,99875.03
2023-01-25T14:25:59.318Z,99882.56
2023-01-25T14:28:09.428Z,99879.91
2023-01-25T14:30:25.393Z,99879.00
2023-01-25T14:32:31.156Z,99870.56
2023-01-25T14:34:36.096Z,99860.66
2023-01-25T14:36:40.964Z,99864.75
2023-01-25T14:38:46.591Z,99862.13
2023-01-25T14:40:53.304Z,99861.28
2023-01-25T14:43:00.174Z,99859.88
2023-01-25T14:45:09.479Z,99855.91
2023-01-25T14:47:34.778Z,99853.44
2023-01-25T14:49:39.614Z,99847.03
2023-01-25T14:51:47.866Z,99852.25
2023-01-25T14:54:06.088Z,99848.72
2023-01-25T14:56:30.377Z,99842.78
2023-01-25T14:58:35.567Z,99839.44
2023-01-25T15:00:40.939Z,99845.38
2023-01-25T15:02:55.155Z,99834.06
2023-01-25T15:05:14.503Z,99837.34
2023-01-25T15:07:38.847Z,99833.88
2023-01-25T15:09:44.996Z,99842.84
2023-01-25T15:11:50.844Z,99836.78
2023-01-25T15:14:05.963Z,99832.59
2023-01-25T15:16:11.497Z,99828.66
2023-01-25T15:18:51.030Z,99826.75
2023-01-25T15:20:55.956Z,99821.31
2023-01-25T15:23:04.825Z,99819.50
2023-01-25T15:25:22.642Z,99819.91
2023-01-25T15:27:28.700Z,99817.16
2023-01-25T15:29:33.564Z,99812.00
2023-01-25T15:31:40.553Z,99816.78
2023-01-25T15:33:45.534Z,99816.59
2023-01-25T15:35:54.252Z,99819.94
2023-01-25T15:37:59.137Z,99811.53
2023-01-25T15:40:03.996Z,99813.13
2023-01-25T15:42:09.057Z,99818.16
2023-01-25T15:44:15.133Z,99823.31
2023-01-25T15:46:24.331Z,99810.03
2023-01-25T15:48:35.690Z,99813.41
2023-01-25T15:50:40.795Z,99813.31
2023-01-25T15:52:49.214Z,99811.44
2023-01-25T15:55:01.359Z,99809.66
2023-01-25T15:57:07.357Z,99812.72
2023-01-25T15:59:20.089Z,99808.84
2023-01-25T16:01:27.550Z,99803.50
2023-01-25T16:03:33.503Z,99806.56
2023-01-25T16:05:39.682Z,99809.66
2023-01-25T16:07:48.651Z,99802.16
2023-01-25T16:09:54.395Z,99796.50
2023-01-25T16:12:02.021Z,99799.75
2023-01-25T16:14:07.599Z,99795.72
2023-01-25T16:16:21.315Z,99789.66
2023-01-25T16:18:26.559Z,99788.78
2023-01-25T16:20:32.427Z,99790.44
2023-01-25T16:22:37.301Z,99798.00
2023-01-25T16:24:45.402Z,99791.53
2023-01-25T16:26:54.832Z,99791.84
2023-01-25T16:29:00.098Z,99796.66
2023-01-25T16:31:05.492Z,99793.31
2023-01-25T16:33:11.012Z,99797.56
2023-01-25T16:35:16.367Z,99800.97
2023-01-25T16:37:21.511Z,99796.78
2023-01-25T16:39:28.346Z,99793.22
2023-01-25T16:41:37.097Z,99794.88
2023-01-25T16:43:43.873Z,99794.94
2023-01-25T16:45:49.145Z,99793.59
2023-01-25T16:47:54.576Z,99786.38
2023-01-25T16:49:59.459Z,99784.59
2023-01-25T16:52:06.088Z,99773.88
2023-01-25T16:54:13.894Z,99769.56
2023-01-25T16:56:21.379Z,99765.38
2023-01-25T16:58:28.822Z,99773.81
2023-01-25T17:00:34.351Z,99763.91
2023-01-25T17:02:41.906Z,99765.31
2023-01-25T17:04:51.996Z,99763.53
2023-01-25T17:06:58.872Z,99759.22
2023-01-25T17:09:21.648Z,99753.44
2023-01-25T17:11:28.395Z,99751.94
2023-01-25T17:13:36.080Z,99750.25
2023-01-25T17:15:41.285Z,99749.41
2023-01-25T17:17:47.099Z,99748.69
2023-01-25T17:19:52.658Z,99748.69
2023-01-25T17:21:59.170Z,99753.53
2023-01-25T17:24:05.581Z,99748.56
2023-01-25T17:26:14.523Z,99748.69
2023-01-25T17:28:19.782Z,99750.34
2023-01-25T17:30:27.373Z,99746.22
2023-01-25T17:32:32.317Z,99745.31
2023-01-25T17:34:37.628Z,99746.03
2023-01-25T17:36:43.595Z,99734.41
2023-01-25T17:38:48.759Z,99740.00
2023-01-25T17:40:54.436Z,99734.91
2023-01-25T17:42:59.332Z,99730.81
2023-01-25T17:45:05.003Z,99735.13
2023-01-25T17:47:12.459Z,99731.94
2023-01-25T17:49:19.560Z,99732.03
2023-01-25T17:51:25.231Z,99727.00
2023-01-25T17:53:30.423Z,99727.28
2023-01-25T17:55:39.010Z,99734.47
2023-01-25T17:57:44.513Z,99723.03
2023-01-25T17:59:49.395Z,99714.75
2023-01-25T18:01:56.524Z,99708.25
2023-01-25T18:04:04.369Z,99712.38
2023-01-25T18:06:10.708Z,99710.66
2023-01-25T18:08:16.491Z,99707.41
2023-01-25T18:10:21.646Z,99703.22
2023-01-25T18:12:27.687Z,99704.13
2023-01-25T18:14:33.004Z,99698.34
2023-01-25T18:16:41.140Z,99696.59
2023-01-25T18:18:47.938Z,99688.25
2023-01-25T18:20:55.453Z,99689.09
2023-01-25T18:23:01.205Z,99687.41
2023-01-25T18:25:06.876Z,99685.06
2023-01-25T18:27:23.063Z,99697.56
2023-01-25T18:29:49.158Z,99693.56
2023-01-25T18:31:55.694Z,99684.22
2023-01-25T18:34:01.196Z,99682.44
2023-01-25T18:36:09.837Z,99685.63
2023-01-25T18:38:15.302Z,99680.50
2023-01-25T18:40:21.318Z,99685.53
2023-01-25T18:42:28.475Z,99682.38
2023-01-25T18:44:34.844Z,99680.56
2023-01-25T18:46:41.592Z,99674.69
2023-01-25T18:48:47.328Z,99672.19
2023-01-25T18:50:52.703Z,99676.47
2023-01-25T18:53:00.621Z,99669.84
2023-01-25T18:55:05.736Z,99665.63
2023-01-25T18:57:12.120Z,99658.28
2023-01-25T18:59:17.203Z,99654.16
2023-01-25T19:01:24.359Z,99653.22
2023-01-25T19:03:30.509Z,99649.94
2023-01-25T19:05:38.003Z,99649.94
2023-01-25T19:07:42.976Z,99655.94
2023-01-25T19:09:50.904Z,99650.94
2023-01-25T19:11:56.248Z,99639.22
2023-01-25T19:14:01.741Z,99642.50
2023-01-25T19:16:09.664Z,99645.84
2023-01-25T19:18:14.624Z,99644.16
2023-01-25T19:20:21.133Z,99640.91
2023-01-25T19:22:26.145Z,99640.94
2023-01-25T19:24:31.074Z,99638.50
2023-01-25T19:26:38.714Z,99631.00
2023-01-25T19:28:44.109Z,99622.78
2023-01-25T19:30:49.319Z,99626.81
2023-01-25T19:32:54.295Z,99622.00
2023-01-25T19:34:59.488Z,99620.41
2023-01-25T19:37:04.393Z,99627.66
2023-01-25T19:39:11.514Z,99627.53
2023-01-25T19:41:18.676Z,99622.41
2023-01-25T19:43:26.397Z,99620.75
2023-01-25T19:45:31.359Z,99615.69
2023-01-25T19:47:36.922Z,99608.41
2023-01-25T19:49:42.280Z,99609.53
2023-01-25T19:51:52.955Z,99606.06
2023-01-25T19:54:03.020Z,99606.00
2023-01-25T19:56:11.001Z,99604.28
2023-01-25T19:58:15.857Z,99597.84
2023-01-25T20:00:24.753Z,99587.16
2023-01-25T20:02:29.666Z,99584.50
2023-01-25T20:04:34.784Z,99582.75
2023-01-25T20:06:39.998Z,99567.91
2023-01-25T20:08:47.309Z,99572.78
2023-01-25T20:10:52.515Z,99563.94
2023-01-25T20:12:58.185Z,99561.53
2023-01-25T20:15:03.501Z,99555.78
2023-01-25T20:17:11.834Z,99554.09
2023-01-25T20:19:17.563Z,99558.09
2023-01-25T20:21:25.348Z,99561.28
2023-01-25T20:23:34.829Z,99557.94
2023-01-25T20:25:39.890Z,99550.63
2023-01-25T20:27:44.797Z,99543.09
2023-01-25T20:29:50.053Z,99544.78
2023-01-25T20:31:55.681Z,99556.16
2023-01-25T20:34:05.572Z,99554.66
2023-01-25T20:36:11.486Z,99564.56
2023-01-25T20:38:16.624Z,99547.94
2023-01-25T20:40:21.755Z,99555.97
2023-01-25T20:42:26.831Z,99555.91
2023-01-25T20:44:31.732Z,99560.91
2023-01-25T20:46:38.698Z,99552.72
2023-01-25T20:48:49.325Z,99556.84
2023-01-25T20:51:04.177Z,99561.13
2023-01-25T20:53:09.088Z,99569.22
2023-01-25T20:55:14.399Z,99567.56
2023-01-25T20:57:19.281Z,99574.00
2023-01-25T20:59:24.133Z,99565.78
2023-01-25T21:01:35.431Z,99567.56
2023-01-25T21:03:40.779Z,99556.91
2023-01-25T21:05:52.959Z,99566.72
2023-01-25T21:08:00.672Z,99564.19
2023-01-25T21:10:05.768Z,99563.44
2023-01-25T21:12:10.771Z,99565.91
2023-01-25T21:14:15.736Z,99565.16
2023-01-25T21:16:23.489Z,99559.44
2023-01-25T21:18:31.273Z,99561.13
2023-01-25T21:20:36.444Z,99566.84
2023-01-25T21:22:42.056Z,99560.22
2023-01-25T21:24:49.880Z,99554.47
2023-01-25T21:26:54.736Z,99545.31
2023-01-25T21:29:02.000Z,99547.94
2023-01-25T21:31:12.876Z,99538.16
2023-01-25T21:33:18.015Z,99538.13
2023-01-25T21:35:22.883Z,99536.44
2023-01-25T21:37:27.806Z,99539.81
2023-01-25T21:39:32.682Z,99523.38
2023-01-25T21:41:40.128Z,99526.69
2023-01-25T21:43:58.049Z,99515.13
2023-01-25T21:46:25.437Z,99516.66
2023-01-25T21:48:42.951Z,99503.41
2023-01-25T21:51:00.652Z,99496.81
2023-01-25T21:53:05.508Z,99502.56
2023-01-25T21:55:12.709Z,99499.22
2023-01-25T21:57:20.958Z,99502.44
2023-01-25T21:59:26.673Z,99491.00
2023-01-25T22:01:32.149Z,99489.19
2023-01-25T22:03:37.166Z,99487.59
2023-01-25T22:05:43.989Z,99482.66
2023-01-25T22:07:48.887Z,99486.72
2023-01-25T22:09:53.741Z,99486.81
2023-01-25T22:11:58.816Z,99481.78
2023-01-25T22:14:06.246Z,99472.72
2023-01-25T22:16:12.946Z,99471.13
2023-01-25T22:18:18.264Z,99471.81
2023-01-25T22:20:23.133Z,99468.25
2023-01-25T22:22:28.058Z,99466.75
2023-01-25T22:24:32.961Z,99466.56
2023-01-25T22:26:53.102Z,99464.22
2023-01-25T22:29:00.284Z,99457.63
2023-01-25T22:31:07.953Z,99454.25
2023-01-25T22:33:12.911Z,99458.47
2023-01-25T22:35:18.011Z,99451.19
2023-01-25T22:37:23.460Z,99447.09
2023-01-25T22:39:28.832Z,99443.72
2023-01-25T22:41:38.487Z,99440.44
2023-01-25T22:43:44.168Z,99436.22
2023-01-25T22:45:53.537Z,99441.97
2023-01-25T22:48:01.249Z,99432.91
2023-01-25T22:50:06.852Z,99426.34
2023-01-25T22:52:11.720Z,99428.88
2023-01-25T22:54:16.949Z,99430.56
2023-01-25T22:56:25.167Z,99422.44
2023-01-25T22:58:30.145Z,99428.81
2023-01-25T23:00:35.478Z,99423.75
2023-01-25T23:02:40.591Z,99418.81
2023-01-25T23:04:48.551Z,99418.72
2023-01-25T23:07:13.097Z,99420.31
2023-01-25T23:09:17.993Z,99415.28
2023-01-25T23:11:32.510Z,99423.50
2023-01-25T23:13:39.844Z,99415.09
2023-01-25T23:15:43.741Z,99421.16
2023-01-25T23:18:01.728Z,99421.28
2023-01-25T23:20:12.544Z,99422.88
2023-01-25T23:22:18.304Z,99427.00
2023-01-25T23:24:27.075Z,99421.38
2023-01-25T23:26:38.076Z,99416.47
2023-01-25T23:28:43.436Z,99413.97
2023-01-25T23:30:48.426Z,99422.25
2023-01-25T23:32:53.491Z,99413.16
2023-01-25T23:34:58.372Z,99410.69
2023-01-25T23:37:06.545Z,99399.03
2023-01-25T23:39:15.189Z,99394.19
2023-01-25T23:41:22.797Z,99393.41
2023-01-25T23:43:27.698Z,99394.00
2023-01-25T23:45:32.746Z,99396.56
2023-01-25T23:47:38.428Z,99389.84
2023-01-25T23:49:43.701Z,99390.75
2023-01-25T23:51:48.982Z,99379.25
2023-01-25T23:53:57.773Z,99375.97
2023-01-25T23:56:06.085Z,99380.22
2023-01-25T23:58:10.955Z,99372.78
